Time;durP1;ratioP1;P1;durP2;ratioP2;P2;SDS_P1;SDS_P2;PMS_P1;PMS_P2;Temp;Humidity;BMP_temperature;BMP_pressure;BME280_temperature;BME280_humidity;BME280_pressure;Samples;Min_cycle;Max_cycle;Signal;HPM_P1;HPM_P2
2021/01/17 00:00:53;;;;;;;28.33;13.73;;;;;;;;;;4995360;28;20053;-88
2021/01/17 00:03:19;;;;;;;26.23;12.33;;;;;;;;;;5009929;28;20023;-88
2021/01/17 00:05:45;;;;;;;26.60;12.93;;;;;;;;;;4995268;28;20528;-88
2021/01/17 00:08:11;;;;;;;25.80;13.27;;;;;;;;;;4995142;28;20014;-89
2021/01/17 00:10:37;;;;;;;27.00;12.80;;;;;;;;;;4996481;28;20018;-89
2021/01/17 00:13:02;;;;;;;26.10;11.50;;;;;;;;;;4994276;28;20026;-89
2021/01/17 00:15:28;;;;;;;24.87;11.83;;;;;;;;;;4998040;28;21148;-88
2021/01/17 00:17:53;;;;;;;27.77;13.47;;;;;;;;;;4995121;28;20034;-89
2021/01/17 00:20:19;;;;;;;25.93;12.73;;;;;;;;;;4994697;28;20022;-88
2021/01/17 00:22:45;;;;;;;25.27;13.17;;;;;;;;;;4995074;28;20055;-88
2021/01/17 00:25:11;;;;;;;23.70;12.50;;;;;;;;;;4996182;28;20022;-89
2021/01/17 00:27:36;;;;;;;26.00;12.80;;;;;;;;;;4994593;28;20016;-88
2021/01/17 00:30:06;;;;;;;25.33;12.53;;;;;;;;;;4986574;28;20113;-89
2021/01/17 00:32:31;;;;;;;25.73;13.00;;;;;;;;;;4995825;28;20103;-89
2021/01/17 00:34:56;;;;;;;25.20;12.53;;;;;;;;;;4994775;28;20050;-89
2021/01/17 00:37:22;;;;;;;25.17;12.43;;;;;;;;;;5008329;28;20060;-87
2021/01/17 00:39:47;;;;;;;24.60;12.37;;;;;;;;;;4994735;28;20018;-89
2021/01/17 00:42:13;;;;;;;21.83;11.77;;;;;;;;;;4994599;28;20026;-89
2021/01/17 00:44:39;;;;;;;26.27;13.00;;;;;;;;;;4994032;28;20077;-89
2021/01/17 00:47:04;;;;;;;24.47;12.13;;;;;;;;;;4994310;28;20026;-89
2021/01/17 00:49:29;;;;;;;23.97;11.93;;;;;;;;;;4994283;28;20092;-89
2021/01/17 00:51:54;;;;;;;21.50;11.57;;;;;;;;;;5010871;28;20061;-89
2021/01/17 00:54:20;;;;;;;23.57;12.23;;;;;;;;;;4994745;28;20027;-89
2021/01/17 00:56:45;;;;;;;22.83;11.93;;;;;;;;;;5024384;28;20121;-89
2021/01/17 00:59:10;;;;;;;22.30;12.17;;;;;;;;;;4994059;28;20029;-88
2021/01/17 01:01:40;;;;;;;20.60;11.07;;;;;;;;;;4993917;28;20022;-89
2021/01/17 01:04:05;;;;;;;23.17;11.37;;;;;;;;;;4994017;28;20124;-90
2021/01/17 01:06:31;;;;;;;23.37;11.60;;;;;;;;;;5024230;28;20045;-89
2021/01/17 01:08:56;;;;;;;21.03;11.00;;;;;;;;;;4994211;28;20027;-89
2021/01/17 01:11:21;;;;;;;23.13;11.37;;;;;;;;;;5007831;28;20022;-89
2021/01/17 01:13:46;;;;;;;23.63;12.10;;;;;;;;;;4996266;28;20076;-89
2021/01/17 01:16:13;;;;;;;21.63;11.50;;;;;;;;;;5006650;28;20076;-89
2021/01/17 01:18:38;;;;;;;20.77;10.93;;;;;;;;;;4994207;28;20377;-90
2021/01/17 01:21:03;;;;;;;26.40;11.87;;;;;;;;;;5023949;28;20176;-89
2021/01/17 01:23:28;;;;;;;22.33;11.67;;;;;;;;;;5010136;28;20042;-89
2021/01/17 01:25:56;;;;;;;22.93;11.80;;;;;;;;;;4997654;28;20120;-89
2021/01/17 01:28:21;;;;;;;24.30;12.17;;;;;;;;;;5019027;28;20042;-90
2021/01/17 01:30:46;;;;;;;22.33;11.70;;;;;;;;;;4993592;28;20033;-90
2021/01/17 01:33:12;;;;;;;22.33;11.30;;;;;;;;;;4993962;28;20061;-89
2021/01/17 01:35:37;;;;;;;20.67;11.60;;;;;;;;;;5008221;28;20438;-89
2021/01/17 01:38:02;;;;;;;21.43;10.93;;;;;;;;;;4993623;28;20034;-90
2021/01/17 01:40:27;;;;;;;21.37;11.73;;;;;;;;;;5006622;28;20061;-89
2021/01/17 01:42:52;;;;;;;18.27;10.13;;;;;;;;;;5011700;28;20045;-90
2021/01/17 01:45:17;;;;;;;19.87;9.93;;;;;;;;;;5003045;28;20021;-90
2021/01/17 01:47:43;;;;;;;20.23;11.30;;;;;;;;;;5021583;28;20454;-90
2021/01/17 01:50:08;;;;;;;20.73;10.47;;;;;;;;;;4993633;28;20026;-90
2021/01/17 01:52:34;;;;;;;19.77;10.33;;;;;;;;;;4993641;28;20022;-90
2021/01/17 01:54:59;;;;;;;18.27;10.27;;;;;;;;;;4987514;28;20023;-90
2021/01/17 01:57:24;;;;;;;21.63;11.47;;;;;;;;;;5000816;28;20027;-90
2021/01/17 01:59:50;;;;;;;19.67;11.47;;;;;;;;;;5003675;28;20048;-90
2021/01/17 02:02:16;;;;;;;21.33;11.43;;;;;;;;;;4984644;28;20022;-90
2021/01/17 02:04:41;;;;;;;20.23;10.80;;;;;;;;;;4991701;28;20474;-91
2021/01/17 02:07:25;;;;;;;21.43;11.40;;;;;;;;;;4982429;28;20026;-90
2021/01/17 02:09:50;;;;;;;21.67;11.53;;;;;;;;;;4993487;28;20064;-91
2021/01/17 02:12:28;;;;;;;23.87;11.80;;;;;;;;;;4989114;28;20054;-91
2021/01/17 02:14:56;;;;;;;22.33;11.43;;;;;;;;;;4985453;28;20026;-91
2021/01/17 02:17:25;;;;;;;19.37;10.37;;;;;;;;;;4994469;28;20370;-90
2021/01/17 02:19:53;;;;;;;21.53;11.20;;;;;;;;;;4999209;28;20031;-90
2021/01/17 02:22:20;;;;;;;21.33;10.57;;;;;;;;;;5005751;28;20109;-90
2021/01/17 02:24:51;;;;;;;22.97;11.53;;;;;;;;;;5000936;28;20015;-90
2021/01/17 02:27:16;;;;;;;21.77;11.87;;;;;;;;;;4986880;28;20062;-90
2021/01/17 02:29:42;;;;;;;21.87;11.67;;;;;;;;;;4993140;28;20026;-91
2021/01/17 02:32:08;;;;;;;23.40;12.43;;;;;;;;;;5020071;28;20034;-90
2021/01/17 02:34:33;;;;;;;23.43;12.50;;;;;;;;;;5000265;28;20022;-90
2021/01/17 02:37:19;;;;;;;23.90;12.83;;;;;;;;;;5029140;28;20113;-91
2021/01/17 02:39:51;;;;;;;20.33;11.40;;;;;;;;;;5018240;28;20037;-91
2021/01/17 02:42:17;;;;;;;24.15;12.60;;;;;;;;;;4992415;28;20023;-91
2021/01/17 02:44:42;;;;;;;21.57;11.83;;;;;;;;;;4993527;28;20521;-90
2021/01/17 02:47:08;;;;;;;26.47;12.40;;;;;;;;;;4991759;28;20026;-90
2021/01/17 02:49:33;;;;;;;22.43;11.77;;;;;;;;;;4992288;28;20025;-90
2021/01/17 02:52:00;;;;;;;23.10;11.17;;;;;;;;;;5011797;28;20017;-90
2021/01/17 02:54:30;;;;;;;21.40;11.83;;;;;;;;;;5011797;28;20026;-91
2021/01/17 02:57:05;;;;;;;24.47;12.23;;;;;;;;;;4994134;28;20105;-90
2021/01/17 02:59:35;;;;;;;22.17;12.00;;;;;;;;;;5009236;28;20029;-91
2021/01/17 03:02:04;;;;;;;25.10;12.17;;;;;;;;;;5001580;28;20065;-90
2021/01/17 03:04:33;;;;;;;23.63;12.20;;;;;;;;;;5017160;28;20080;-91
2021/01/17 03:07:00;;;;;;;23.30;11.83;;;;;;;;;;5015715;28;20049;-90
2021/01/17 03:09:28;;;;;;;24.63;11.93;;;;;;;;;;5026516;28;20474;-91
2021/01/17 03:11:53;;;;;;;25.23;11.63;;;;;;;;;;5012931;28;20018;-90
2021/01/17 03:14:18;;;;;;;24.93;11.97;;;;;;;;;;5011040;28;20477;-90
2021/01/17 03:16:43;;;;;;;24.63;12.07;;;;;;;;;;5023182;28;20022;-90
2021/01/17 03:19:08;;;;;;;29.10;13.30;;;;;;;;;;5000662;28;20018;-90
2021/01/17 03:21:34;;;;;;;21.93;11.57;;;;;;;;;;4996266;28;20018;-89
2021/01/17 03:23:59;;;;;;;22.60;12.43;;;;;;;;;;4995779;28;20022;-90
2021/01/17 03:26:26;;;;;;;22.50;12.20;;;;;;;;;;5002392;28;20451;-90
2021/01/17 03:28:51;;;;;;;22.80;12.47;;;;;;;;;;5020164;28;20018;-90
2021/01/17 03:31:16;;;;;;;24.40;11.73;;;;;;;;;;5016731;28;20021;-90
2021/01/17 03:33:41;;;;;;;23.30;11.17;;;;;;;;;;5012263;28;20026;-89
2021/01/17 03:36:07;;;;;;;23.67;12.30;;;;;;;;;;5008434;28;20018;-89
2021/01/17 03:38:32;;;;;;;29.80;13.00;;;;;;;;;;5012313;28;20597;-89
2021/01/17 03:40:58;;;;;;;27.07;13.07;;;;;;;;;;4996042;28;20429;-89
2021/01/17 03:43:23;;;;;;;26.40;13.93;;;;;;;;;;4995541;28;20038;-89
2021/01/17 03:45:48;;;;;;;28.50;13.77;;;;;;;;;;4995782;28;20026;-89
2021/01/17 03:48:13;;;;;;;24.73;13.33;;;;;;;;;;4995383;28;20020;-89
2021/01/17 03:50:38;;;;;;;24.83;12.07;;;;;;;;;;4995394;28;20030;-89
2021/01/17 03:53:03;;;;;;;24.97;12.83;;;;;;;;;;4995680;28;20477;-89
2021/01/17 03:55:29;;;;;;;26.87;12.77;;;;;;;;;;5018734;28;20022;-89
2021/01/17 03:57:54;;;;;;;24.83;12.60;;;;;;;;;;5019143;28;20436;-88
2021/01/17 04:00:19;;;;;;;24.90;13.17;;;;;;;;;;5011531;28;20032;-90
2021/01/17 04:02:45;;;;;;;23.17;11.97;;;;;;;;;;4995684;28;20030;-89
2021/01/17 04:05:10;;;;;;;25.57;13.00;;;;;;;;;;4996573;28;20065;-89
2021/01/17 04:07:35;;;;;;;30.03;13.40;;;;;;;;;;4995021;28;20018;-89
2021/01/17 04:10:00;;;;;;;28.20;13.23;;;;;;;;;;4995388;28;20076;-89
2021/01/17 04:12:26;;;;;;;32.07;13.83;;;;;;;;;;4996507;28;20382;-89
2021/01/17 04:14:51;;;;;;;28.30;14.30;;;;;;;;;;4996695;28;20018;-89
2021/01/17 04:17:16;;;;;;;32.57;14.60;;;;;;;;;;4996219;28;20060;-89
2021/01/17 04:19:41;;;;;;;46.33;16.60;;;;;;;;;;5012768;28;20033;-89
2021/01/17 04:22:06;;;;;;;33.40;14.93;;;;;;;;;;5011533;28;20029;-89
2021/01/17 04:24:32;;;;;;;35.80;14.47;;;;;;;;;;4987577;28;20023;-89
2021/01/17 04:26:57;;;;;;;35.37;15.67;;;;;;;;;;4985984;28;20042;-90
2021/01/17 04:29:23;;;;;;;45.27;15.93;;;;;;;;;;5000309;28;20022;-89
2021/01/17 04:31:48;;;;;;;34.67;15.50;;;;;;;;;;5019641;28;20026;-89
2021/01/17 04:34:13;;;;;;;34.60;14.53;;;;;;;;;;4995159;28;20018;-89
2021/01/17 04:36:38;;;;;;;38.80;16.03;;;;;;;;;;4995019;28;20018;-89
2021/01/17 04:39:04;;;;;;;39.10;15.73;;;;;;;;;;5022551;28;20587;-89
2021/01/17 04:41:30;;;;;;;37.97;15.30;;;;;;;;;;5013575;28;20053;-89
2021/01/17 04:43:57;;;;;;;37.67;15.50;;;;;;;;;;4996023;28;20397;-90
2021/01/17 04:46:23;;;;;;;33.87;15.33;;;;;;;;;;5008386;28;20025;-90
2021/01/17 04:48:51;;;;;;;37.67;15.50;;;;;;;;;;5002546;28;20018;-89
2021/01/17 04:51:17;;;;;;;33.97;14.87;;;;;;;;;;5003368;28;20019;-89
2021/01/17 04:53:43;;;;;;;38.30;16.70;;;;;;;;;;4997348;28;20026;-90
2021/01/17 04:56:17;;;;;;;38.90;17.07;;;;;;;;;;4983213;28;20023;-90
2021/01/17 04:58:43;;;;;;;42.33;16.70;;;;;;;;;;5007180;28;20019;-90
2021/01/17 05:01:14;;;;;;;49.13;17.53;;;;;;;;;;5008053;28;20026;-90
2021/01/17 05:03:39;;;;;;;46.03;17.77;;;;;;;;;;4992361;28;20033;-89
2021/01/17 05:06:25;;;;;;;43.37;17.80;;;;;;;;;;4995641;28;20030;-89
2021/01/17 05:09:02;;;;;;;46.13;18.20;;;;;;;;;;4980784;28;20130;-89
2021/01/17 05:11:40;;;;;;;48.83;19.53;;;;;;;;;;5010734;28;20394;-89
2021/01/17 05:14:16;;;;;;;48.07;20.70;;;;;;;;;;5015807;28;20721;-89
2021/01/17 05:16:42;;;;;;;52.40;19.30;;;;;;;;;;5004002;28;20022;-90
2021/01/17 05:19:10;;;;;;;56.90;20.87;;;;;;;;;;4999102;28;20017;-89
2021/01/17 05:21:38;;;;;;;45.83;20.47;;;;;;;;;;5003592;28;20026;-89
2021/01/17 05:24:07;;;;;;;40.40;18.13;;;;;;;;;;4997518;28;20078;-90
2021/01/17 05:26:33;;;;;;;40.03;17.93;;;;;;;;;;5020053;28;20053;-90
2021/01/17 05:28:58;;;;;;;41.97;17.93;;;;;;;;;;4991789;28;20014;-89
2021/01/17 05:31:25;;;;;;;44.27;18.97;;;;;;;;;;4983612;28;20033;-90
2021/01/17 05:33:50;;;;;;;50.63;19.97;;;;;;;;;;4993684;28;20022;-89
2021/01/17 05:36:16;;;;;;;46.37;18.50;;;;;;;;;;5016182;28;20021;-89
2021/01/17 05:38:41;;;;;;;55.77;20.47;;;;;;;;;;5017449;28;20496;-89
2021/01/17 05:41:22;;;;;;;51.20;21.03;;;;;;;;;;4992575;28;20033;-89
2021/01/17 05:43:47;;;;;;;51.90;21.10;;;;;;;;;;4993467;28;20109;-89
2021/01/17 05:46:12;;;;;;;52.33;18.63;;;;;;;;;;5007324;28;20049;-89
2021/01/17 05:48:38;;;;;;;49.27;19.27;;;;;;;;;;4993376;28;20037;-89
2021/01/17 05:51:03;;;;;;;53.77;21.40;;;;;;;;;;4993342;28;20034;-88
2021/01/17 05:53:28;;;;;;;45.77;19.53;;;;;;;;;;5009319;28;20018;-88
2021/01/17 05:55:53;;;;;;;59.03;21.50;;;;;;;;;;4993318;28;20478;-88
2021/01/17 05:58:23;;;;;;;55.63;20.00;;;;;;;;;;4992540;28;20022;-88
2021/01/17 06:00:49;;;;;;;49.17;19.20;;;;;;;;;;4992909;28;20022;-88
2021/01/17 06:03:23;;;;;;;46.40;18.37;;;;;;;;;;4992548;28;20120;-88
2021/01/17 06:05:50;;;;;;;48.67;18.43;;;;;;;;;;4992756;28;20032;-88
2021/01/17 06:08:19;;;;;;;63.00;22.30;;;;;;;;;;4979375;28;20122;-88
2021/01/17 06:10:47;;;;;;;57.97;20.87;;;;;;;;;;4986356;28;20030;-88
2021/01/17 06:13:19;;;;;;;56.73;21.27;;;;;;;;;;4992961;28;20057;-88
2021/01/17 06:15:44;;;;;;;52.83;19.48;;;;;;;;;;4992747;28;20088;-88
2021/01/17 06:18:14;;;;;;;51.47;19.47;;;;;;;;;;5004085;28;20030;-89
2021/01/17 06:20:39;;;;;;;53.03;20.17;;;;;;;;;;5009698;28;20026;-88
2021/01/17 06:23:06;;;;;;;51.00;18.37;;;;;;;;;;5003562;28;20572;-89
2021/01/17 06:25:31;;;;;;;51.37;19.43;;;;;;;;;;5027111;28;20104;-89
2021/01/17 06:28:10;;;;;;;52.53;20.50;;;;;;;;;;4993771;28;20038;-89
2021/01/17 06:30:36;;;;;;;60.80;20.80;;;;;;;;;;4993917;28;20501;-89
2021/01/17 06:33:04;;;;;;;51.73;19.67;;;;;;;;;;5008995;28;20022;-89
2021/01/17 06:35:31;;;;;;;44.83;19.40;;;;;;;;;;4992571;28;20022;-89
2021/01/17 06:37:56;;;;;;;52.90;18.53;;;;;;;;;;4995451;28;20027;-90
2021/01/17 06:40:29;;;;;;;51.53;18.50;;;;;;;;;;4984853;28;20023;-90
2021/01/17 06:42:55;;;;;;;49.20;18.63;;;;;;;;;;5004048;28;20022;-90
2021/01/17 06:45:20;;;;;;;56.03;19.47;;;;;;;;;;4997212;28;20069;-90
2021/01/17 06:47:55;;;;;;;46.20;18.63;;;;;;;;;;4996862;28;20538;-90
2021/01/17 06:50:23;;;;;;;54.30;18.60;;;;;;;;;;4999703;28;20026;-90
2021/01/17 06:52:52;;;;;;;50.97;16.77;;;;;;;;;;5013202;28;20026;-90
2021/01/17 06:55:19;;;;;;;42.83;16.87;;;;;;;;;;4996596;28;20019;-90
2021/01/17 06:57:45;;;;;;;46.87;15.77;;;;;;;;;;5023949;28;20022;-90
2021/01/17 07:00:14;;;;;;;42.87;15.43;;;;;;;;;;5015499;28;20018;-90
2021/01/17 07:02:42;;;;;;;39.37;14.27;;;;;;;;;;5012746;28;20023;-89
2021/01/17 07:05:07;;;;;;;38.97;14.20;;;;;;;;;;5001725;28;20022;-90
2021/01/17 07:07:51;;;;;;;36.43;13.00;;;;;;;;;;4996399;28;20046;-89
2021/01/17 07:10:21;;;;;;;44.27;13.43;;;;;;;;;;4996037;28;20022;-89
2021/01/17 07:12:46;;;;;;;32.43;12.10;;;;;;;;;;5005245;28;20465;-89
2021/01/17 07:15:13;;;;;;;33.80;10.83;;;;;;;;;;5002224;28;20081;-89
2021/01/17 07:17:41;;;;;;;35.27;11.63;;;;;;;;;;5025502;28;20069;-90
2021/01/17 07:20:11;;;;;;;37.03;10.40;;;;;;;;;;4996311;28;20026;-90
2021/01/17 07:22:38;;;;;;;34.53;10.80;;;;;;;;;;5004562;28;20018;-90
2021/01/17 07:25:05;;;;;;;32.07;10.73;;;;;;;;;;5020271;28;20025;-90
2021/01/17 07:27:44;;;;;;;33.77;10.97;;;;;;;;;;4991767;28;20466;-89
2021/01/17 07:30:12;;;;;;;34.40;10.40;;;;;;;;;;4986459;28;20030;-89
2021/01/17 07:32:38;;;;;;;30.00;9.47;;;;;;;;;;4994578;28;20481;-89
2021/01/17 07:35:07;;;;;;;24.93;9.80;;;;;;;;;;4996182;28;20022;-90
2021/01/17 07:37:33;;;;;;;25.13;9.40;;;;;;;;;;4995821;28;20031;-89
2021/01/17 07:40:01;;;;;;;32.57;10.37;;;;;;;;;;5017246;28;20032;-90
2021/01/17 07:42:32;;;;;;;35.77;10.40;;;;;;;;;;5020822;28;20069;-89
2021/01/17 07:45:09;;;;;;;33.43;10.57;;;;;;;;;;4995893;28;20054;-90
2021/01/17 07:47:40;;;;;;;29.83;10.47;;;;;;;;;;5007287;28;20033;-89
2021/01/17 07:50:07;;;;;;;37.23;9.67;;;;;;;;;;5013691;28;20492;-89
2021/01/17 07:52:33;;;;;;;39.00;11.20;;;;;;;;;;4995720;28;20674;-90
2021/01/17 07:54:58;;;;;;;37.90;10.17;;;;;;;;;;4994337;28;20031;-89
2021/01/17 07:57:24;;;;;;;33.47;10.20;;;;;;;;;;4988894;28;20093;-90
2021/01/17 07:59:49;;;;;;;26.77;8.63;;;;;;;;;;4988900;28;20077;-90
2021/01/17 08:02:24;;;;;;;43.77;10.70;;;;;;;;;;5025672;28;20053;-90
2021/01/17 08:04:49;;;;;;;40.93;10.90;;;;;;;;;;4995373;28;20053;-90
2021/01/17 08:07:29;;;;;;;35.10;10.17;;;;;;;;;;4995606;28;20018;-90
2021/01/17 08:09:54;;;;;;;26.97;9.43;;;;;;;;;;4995658;28;20030;-90
2021/01/17 08:12:31;;;;;;;31.70;9.00;;;;;;;;;;4995276;28;20105;-90
2021/01/17 08:15:12;;;;;;;29.13;8.90;;;;;;;;;;4995757;28;20026;-92
2021/01/17 08:17:38;;;;;;;31.97;9.13;;;;;;;;;;5006090;28;20135;-90
2021/01/17 08:20:03;;;;;;;40.50;9.43;;;;;;;;;;5014869;28;20783;-91
2021/01/17 08:22:29;;;;;;;31.47;8.50;;;;;;;;;;5011585;28;20351;-91
2021/01/17 08:24:57;;;;;;;33.83;8.57;;;;;;;;;;4996564;28;20030;-91
2021/01/17 08:27:32;;;;;;;26.93;8.73;;;;;;;;;;4998303;28;20113;-91
2021/01/17 08:30:00;;;;;;;32.57;7.70;;;;;;;;;;5004662;28;20030;-91
2021/01/17 08:32:28;;;;;;;33.37;8.23;;;;;;;;;;4997747;28;20049;-91
2021/01/17 08:34:53;;;;;;;29.70;7.70;;;;;;;;;;5006996;28;20053;-92
2021/01/17 08:37:19;;;;;;;36.37;8.80;;;;;;;;;;4997150;28;20144;-91
2021/01/17 08:39:44;;;;;;;24.87;7.83;;;;;;;;;;5003595;28;20028;-92
2021/01/17 08:42:36;;;;;;;26.97;8.13;;;;;;;;;;5022208;28;20018;-92
2021/01/17 08:45:03;;;;;;;31.87;7.93;;;;;;;;;;5009301;28;20030;-91
2021/01/17 08:47:33;;;;;;;24.20;7.77;;;;;;;;;;5011150;28;20033;-91
2021/01/17 08:49:59;;;;;;;36.57;8.57;;;;;;;;;;4992493;28;20023;-91
2021/01/17 08:52:28;;;;;;;28.10;7.13;;;;;;;;;;5000847;28;20113;-91
2021/01/17 08:54:53;;;;;;;32.27;8.33;;;;;;;;;;4981329;28;20390;-91
2021/01/17 08:57:37;;;;;;;30.57;7.30;;;;;;;;;;4994555;28;20037;-90
2021/01/17 09:00:04;;;;;;;30.80;7.07;;;;;;;;;;4991125;28;20165;-90
2021/01/17 09:02:29;;;;;;;29.77;6.80;;;;;;;;;;4994444;28;20045;-91
2021/01/17 09:04:55;;;;;;;26.53;6.47;;;;;;;;;;4994232;28;20034;-90
2021/01/17 09:07:36;;;;;;;23.40;6.40;;;;;;;;;;4994481;28;20462;-90
2021/01/17 09:10:03;;;;;;;29.30;6.30;;;;;;;;;;4980772;28;20113;-90
2021/01/17 09:12:28;;;;;;;24.20;5.80;;;;;;;;;;4995633;28;20033;-90
2021/01/17 09:14:54;;;;;;;33.67;5.50;;;;;;;;;;4994427;28;20030;-91
2021/01/17 09:17:25;;;;;;;36.03;6.67;;;;;;;;;;5010802;28;20022;-90
2021/01/17 09:19:51;;;;;;;30.50;6.50;;;;;;;;;;4994063;28;20034;-89
2021/01/17 09:22:16;;;;;;;26.67;5.93;;;;;;;;;;4993034;28;20022;-90
2021/01/17 09:24:42;;;;;;;22.83;5.23;;;;;;;;;;4993192;28;20106;-89
2021/01/17 09:27:08;;;;;;;26.63;6.73;;;;;;;;;;5009473;28;20715;-89
2021/01/17 09:29:35;;;;;;;28.47;5.53;;;;;;;;;;4993546;28;20494;-90
2021/01/17 09:32:03;;;;;;;24.10;5.70;;;;;;;;;;4993623;28;20034;-89
2021/01/17 09:34:30;;;;;;;19.37;5.73;;;;;;;;;;4993317;28;20076;-89
2021/01/17 09:36:55;;;;;;;23.43;5.27;;;;;;;;;;4993148;28;20034;-90
2021/01/17 09:39:28;;;;;;;26.73;6.43;;;;;;;;;;5013669;28;20056;-89
2021/01/17 09:41:53;;;;;;;36.07;6.37;;;;;;;;;;4993401;28;20056;-89
2021/01/17 09:44:19;;;;;;;28.07;6.17;;;;;;;;;;4994845;28;20014;-90
2021/01/17 09:46:44;;;;;;;28.70;6.20;;;;;;;;;;4993434;28;20022;-90
2021/01/17 09:49:09;;;;;;;26.20;6.07;;;;;;;;;;4994876;28;20022;-90
2021/01/17 09:51:34;;;;;;;33.07;6.03;;;;;;;;;;5009684;28;20432;-90
2021/01/17 09:54:00;;;;;;;29.53;6.43;;;;;;;;;;4993197;28;20019;-89
2021/01/17 09:56:25;;;;;;;16.27;4.70;;;;;;;;;;4993372;28;20133;-89
2021/01/17 09:58:50;;;;;;;32.10;6.90;;;;;;;;;;5023290;28;20351;-89
2021/01/17 10:01:16;;;;;;;34.37;6.73;;;;;;;;;;4992886;28;20026;-89
2021/01/17 10:03:44;;;;;;;30.03;7.33;;;;;;;;;;4993919;28;20470;-89
2021/01/17 10:06:09;;;;;;;34.93;6.43;;;;;;;;;;5009600;28;20490;-89
2021/01/17 10:08:35;;;;;;;38.27;6.57;;;;;;;;;;4993573;28;20061;-91
2021/01/17 10:11:00;;;;;;;31.33;7.13;;;;;;;;;;5009629;28;20026;-88
2021/01/17 10:13:25;;;;;;;28.60;6.90;;;;;;;;;;4992257;28;20030;-90
2021/01/17 10:15:54;;;;;;;36.60;7.43;;;;;;;;;;5015947;28;20026;-88
2021/01/17 10:18:22;;;;;;;35.80;7.30;;;;;;;;;;5004431;28;20083;-89
2021/01/17 10:20:52;;;;;;;32.97;7.50;;;;;;;;;;5023785;28;20595;-88
2021/01/17 10:23:18;;;;;;;28.67;7.67;;;;;;;;;;4993596;28;20481;-89
2021/01/17 10:25:45;;;;;;;28.33;6.93;;;;;;;;;;4992566;28;20462;-89
2021/01/17 10:28:10;;;;;;;44.50;7.43;;;;;;;;;;4993916;28;20023;-90
2021/01/17 10:30:37;;;;;;;28.13;6.07;;;;;;;;;;4993171;28;20026;-92
2021/01/17 10:33:02;;;;;;;27.60;6.17;;;;;;;;;;4993231;28;20026;-93
2021/01/17 10:35:29;;;;;;;37.57;6.57;;;;;;;;;;4993199;28;20023;-92
2021/01/17 10:37:54;;;;;;;35.70;8.40;;;;;;;;;;5009108;28;20104;-89
2021/01/17 10:40:26;;;;;;;36.53;5.93;;;;;;;;;;4992945;28;20470;-92
2021/01/17 10:42:53;;;;;;;21.92;5.30;;;;;;;;;;4992432;28;20080;-92
2021/01/17 10:45:19;;;;;;;37.00;5.93;;;;;;;;;;4993197;28;20034;-91
2021/01/17 10:47:57;;;;;;;24.37;5.77;;;;;;;;;;4993150;28;20041;-91
2021/01/17 10:50:24;;;;;;;34.80;7.20;;;;;;;;;;4980126;28;20026;-91
2021/01/17 10:52:49;;;;;;;39.57;6.07;;;;;;;;;;4992983;28;20026;-90
2021/01/17 10:55:14;;;;;;;35.53;7.27;;;;;;;;;;4993098;28;20037;-91
2021/01/17 10:57:41;;;;;;;41.30;6.70;;;;;;;;;;5009315;28;20022;-91
2021/01/17 11:00:07;;;;;;;35.10;7.77;;;;;;;;;;5007056;28;20088;-91
2021/01/17 11:02:32;;;;;;;29.17;5.73;;;;;;;;;;4992751;28;20027;-91
2021/01/17 11:04:58;;;;;;;31.50;6.67;;;;;;;;;;4997842;28;20037;-91
2021/01/17 11:07:27;;;;;;;32.43;6.10;;;;;;;;;;4992802;28;20018;-91
2021/01/17 11:09:52;;;;;;;37.73;7.00;;;;;;;;;;4993017;28;20363;-91
2021/01/17 11:12:34;;;;;;;45.03;11.77;;;;;;;;;;4987864;28;20030;-91
2021/01/17 11:15:12;;;;;;;28.20;5.57;;;;;;;;;;4983083;28;20065;-91
2021/01/17 11:17:38;;;;;;;38.53;7.10;;;;;;;;;;4983655;28;20076;-91
2021/01/17 11:20:08;;;;;;;35.47;6.63;;;;;;;;;;4993882;28;20026;-92
2021/01/17 11:22:33;;;;;;;29.53;6.00;;;;;;;;;;5006463;28;20054;-91
2021/01/17 11:24:58;;;;;;;23.10;5.43;;;;;;;;;;4992739;28;20474;-92
2021/01/17 11:27:32;;;;;;;40.03;6.70;;;;;;;;;;4992512;28;20050;-91
2021/01/17 11:29:58;;;;;;;25.97;6.30;;;;;;;;;;4996638;28;20413;-92
2021/01/17 11:32:30;;;;;;;33.53;6.60;;;;;;;;;;4996198;28;20060;-91
2021/01/17 11:34:56;;;;;;;34.10;7.00;;;;;;;;;;5005571;28;20076;-91
2021/01/17 11:37:30;;;;;;;22.60;5.93;;;;;;;;;;5003338;28;20425;-91
2021/01/17 11:40:02;;;;;;;24.67;6.67;;;;;;;;;;4996341;28;20038;-91
2021/01/17 11:42:28;;;;;;;32.70;8.13;;;;;;;;;;5012629;28;20030;-91
2021/01/17 11:44:53;;;;;;;25.43;5.80;;;;;;;;;;5012427;28;20030;-90
2021/01/17 11:47:19;;;;;;;22.90;6.23;;;;;;;;;;4996124;28;20077;-91
2021/01/17 11:49:44;;;;;;;34.23;6.87;;;;;;;;;;5011016;28;20470;-92
2021/01/17 11:52:12;;;;;;;20.50;6.03;;;;;;;;;;4996120;28;20477;-91
2021/01/17 11:54:37;;;;;;;25.63;7.37;;;;;;;;;;4997289;28;20049;-91
2021/01/17 11:57:04;;;;;;;26.10;6.27;;;;;;;;;;4995656;28;20022;-91
2021/01/17 11:59:30;;;;;;;31.23;6.13;;;;;;;;;;5011757;28;20026;-91
2021/01/17 12:01:55;;;;;;;30.87;6.37;;;;;;;;;;5012320;28;20033;-91
2021/01/17 12:04:26;;;;;;;23.60;5.37;;;;;;;;;;4995817;28;20031;-92
2021/01/17 12:07:04;;;;;;;26.00;5.43;;;;;;;;;;4995701;28;20022;-91
2021/01/17 12:09:29;;;;;;;34.73;5.73;;;;;;;;;;4995790;28;20029;-90
2021/01/17 12:11:54;;;;;;;24.20;4.90;;;;;;;;;;5011932;28;20117;-91
2021/01/17 12:14:20;;;;;;;19.73;4.90;;;;;;;;;;4995720;28;20026;-91
2021/01/17 12:16:50;;;;;;;26.67;4.70;;;;;;;;;;4995619;28;20026;-91
2021/01/17 12:19:16;;;;;;;26.30;6.07;;;;;;;;;;5002821;28;20025;-91
2021/01/17 12:21:41;;;;;;;34.37;5.50;;;;;;;;;;5019274;28;20027;-91
2021/01/17 12:24:08;;;;;;;31.20;4.63;;;;;;;;;;5025746;28;20355;-91
2021/01/17 12:26:34;;;;;;;23.10;5.07;;;;;;;;;;5001727;28;20462;-91
2021/01/17 12:28:59;;;;;;;29.17;5.17;;;;;;;;;;5022094;28;20029;-91
2021/01/17 12:31:26;;;;;;;31.17;6.27;;;;;;;;;;4995446;28;20034;-91
2021/01/17 12:33:51;;;;;;;35.80;6.00;;;;;;;;;;5025355;28;20049;-91
2021/01/17 12:36:17;;;;;;;21.53;4.50;;;;;;;;;;5011506;28;20061;-91
2021/01/17 12:38:43;;;;;;;23.50;4.57;;;;;;;;;;4999167;28;20482;-91
2021/01/17 12:41:27;;;;;;;28.47;4.80;;;;;;;;;;4994026;28;20183;-90
2021/01/17 12:43:52;;;;;;;29.73;5.60;;;;;;;;;;4986528;28;20065;-91
2021/01/17 12:46:18;;;;;;;22.83;4.23;;;;;;;;;;5006610;28;20023;-91
2021/01/17 12:48:44;;;;;;;26.77;4.00;;;;;;;;;;4996085;28;20014;-91
2021/01/17 12:51:10;;;;;;;20.80;3.80;;;;;;;;;;5024301;28;20021;-91
2021/01/17 12:53:36;;;;;;;29.50;4.07;;;;;;;;;;5000360;28;20034;-93
2021/01/17 12:56:01;;;;;;;28.03;4.17;;;;;;;;;;5018705;28;20030;-96
2021/01/17 12:58:26;;;;;;;36.57;4.57;;;;;;;;;;5011457;28;20044;-96
2021/01/17 13:00:51;;;;;;;20.13;3.87;;;;;;;;;;5011411;28;20026;-96
2021/01/17 13:03:16;;;;;;;17.77;4.13;;;;;;;;;;4994697;28;20415;-95
2021/01/17 13:05:42;;;;;;;24.17;3.93;;;;;;;;;;5011194;28;20034;-96
2021/01/17 13:08:07;;;;;;;26.73;4.73;;;;;;;;;;5011346;28;20026;-96
2021/01/17 13:10:32;;;;;;;24.77;3.60;;;;;;;;;;4989346;28;20117;-95
2021/01/17 13:12:57;;;;;;;28.30;4.20;;;;;;;;;;5011145;28;20022;-95
2021/01/17 13:15:29;;;;;;;24.23;3.70;;;;;;;;;;4997273;28;20019;-95
2021/01/17 13:17:55;;;;;;;22.13;3.28;;;;;;;;;;5011054;28;20026;-95
2021/01/17 13:20:21;;;;;;;33.73;4.57;;;;;;;;;;4995427;28;20048;-96
2021/01/17 13:22:46;;;;;;;27.93;3.77;;;;;;;;;;5001350;28;20021;-96
2021/01/17 13:25:13;;;;;;;29.57;5.17;;;;;;;;;;5017241;28;20089;-96
2021/01/17 13:27:38;;;;;;;22.40;3.40;;;;;;;;;;4999168;28;20381;-95
2021/01/17 13:30:05;;;;;;;29.20;3.40;;;;;;;;;;5019001;28;20032;-96
2021/01/17 13:32:32;;;;;;;22.30;3.33;;;;;;;;;;5010551;28;20032;-95
2021/01/17 13:34:57;;;;;;;23.50;3.30;;;;;;;;;;4994534;28;20122;-96
2021/01/17 13:37:23;;;;;;;19.90;3.30;;;;;;;;;;5025980;28;20481;-92
2021/01/17 13:39:48;;;;;;;23.77;2.70;;;;;;;;;;5012316;28;20497;-92
2021/01/17 13:42:20;;;;;;;25.90;4.30;;;;;;;;;;4993336;28;20046;-92
2021/01/17 13:44:45;;;;;;;25.25;3.63;;;;;;;;;;4997059;28;20025;-91
2021/01/17 13:47:10;;;;;;;22.00;3.17;;;;;;;;;;5009958;28;20466;-92
2021/01/17 13:49:35;;;;;;;27.60;3.43;;;;;;;;;;5011396;28;20018;-92
2021/01/17 13:52:02;;;;;;;27.70;3.33;;;;;;;;;;4988752;28;20095;-92
2021/01/17 13:54:27;;;;;;;21.03;3.47;;;;;;;;;;4994420;28;20413;-93
2021/01/17 13:56:52;;;;;;;24.73;3.30;;;;;;;;;;4988304;28;20050;-92
2021/01/17 13:59:17;;;;;;;19.67;3.63;;;;;;;;;;4993306;28;20027;-92
2021/01/17 14:01:43;;;;;;;19.33;3.10;;;;;;;;;;5007059;28;20422;-92
2021/01/17 14:04:08;;;;;;;22.30;2.93;;;;;;;;;;5008127;28;20026;-91
2021/01/17 14:06:37;;;;;;;17.23;2.60;;;;;;;;;;5009569;28;20485;-91
2021/01/17 14:09:02;;;;;;;19.73;3.20;;;;;;;;;;5009005;28;20026;-90
2021/01/17 14:11:27;;;;;;;17.47;2.33;;;;;;;;;;4996890;28;20030;-91
2021/01/17 14:13:52;;;;;;;24.77;3.33;;;;;;;;;;5005614;28;20019;-91
2021/01/17 14:16:18;;;;;;;26.77;2.67;;;;;;;;;;4993520;28;20026;-92
2021/01/17 14:18:43;;;;;;;24.97;3.13;;;;;;;;;;5009496;28;20474;-92
2021/01/17 14:21:08;;;;;;;18.80;2.83;;;;;;;;;;5004042;28;20108;-92
2021/01/17 14:23:33;;;;;;;18.07;2.77;;;;;;;;;;5011759;28;20011;-92